sensor_id;sensor_type;location;lat;lon;timestamp;P1;durP1;ratioP1;P2;durP2;ratioP2
9176;SDS011;4623;54.310;10.112;2022-11-20T00:01:14;5.57;;;3.70;;
9176;SDS011;4623;54.310;10.112;2022-11-20T00:03:51;3.57;;;3.27;;
9176;SDS011;4623;54.310;10.112;2022-11-20T00:06:18;3.47;;;3.20;;
9176;SDS011;4623;54.310;10.112;2022-11-20T00:08:45;3.10;;;2.90;;
9176;SDS011;4623;54.310;10.112;2022-11-20T00:11:15;3.20;;;3.00;;
9176;SDS011;4623;54.310;10.112;2022-11-20T00:13:46;3.50;;;3.17;;
9176;SDS011;4623;54.310;10.112;2022-11-20T00:16:14;3.00;;;2.80;;
9176;SDS011;4623;54.310;10.112;2022-11-20T00:18:42;3.57;;;3.33;;
9176;SDS011;4623;54.310;10.112;2022-11-20T00:21:13;3.80;;;3.50;;
9176;SDS011;4623;54.310;10.112;2022-11-20T00:23:40;4.13;;;3.83;;
9176;SDS011;4623;54.310;10.112;2022-11-20T00:26:07;3.87;;;3.57;;
9176;SDS011;4623;54.310;10.112;2022-11-20T00:28:34;3.77;;;3.47;;
9176;SDS011;4623;54.310;10.112;2022-11-20T00:33:29;3.60;;;3.30;;
9176;SDS011;4623;54.310;10.112;2022-11-20T00:36:06;4.23;;;3.63;;
9176;SDS011;4623;54.310;10.112;2022-11-20T00:38:33;3.43;;;3.13;;
9176;SDS011;4623;54.310;10.112;2022-11-20T00:41:00;3.00;;;2.80;;
9176;SDS011;4623;54.310;10.112;2022-11-20T00:43:27;3.90;;;3.60;;
9176;SDS011;4623;54.310;10.112;2022-11-20T00:46:00;4.10;;;3.73;;
9176;SDS011;4623;54.310;10.112;2022-11-20T00:48:28;3.97;;;3.57;;
9176;SDS011;4623;54.310;10.112;2022-11-20T00:50:55;3.70;;;3.40;;
9176;SDS011;4623;54.310;10.112;2022-11-20T00:53:21;4.07;;;3.33;;
9176;SDS011;4623;54.310;10.112;2022-11-20T00:55:59;3.07;;;2.77;;
9176;SDS011;4623;54.310;10.112;2022-11-20T00:58:30;3.47;;;3.17;;
9176;SDS011;4623;54.310;10.112;2022-11-20T01:01:01;3.40;;;3.10;;
9176;SDS011;4623;54.310;10.112;2022-11-20T01:03:32;4.27;;;3.53;;
9176;SDS011;4623;54.310;10.112;2022-11-20T01:06:02;3.33;;;3.03;;
9176;SDS011;4623;54.310;10.112;2022-11-20T01:08:31;4.60;;;3.30;;
9176;SDS011;4623;54.310;10.112;2022-11-20T01:11:06;3.07;;;2.80;;
9176;SDS011;4623;54.310;10.112;2022-11-20T01:13:34;3.77;;;3.27;;
9176;SDS011;4623;54.310;10.112;2022-11-20T01:16:04;4.27;;;3.77;;
9176;SDS011;4623;54.310;10.112;2022-11-20T01:18:32;3.23;;;2.97;;
9176;SDS011;4623;54.310;10.112;2022-11-20T01:21:19;3.50;;;3.20;;
9176;SDS011;4623;54.310;10.112;2022-11-20T01:23:50;2.93;;;2.73;;
9176;SDS011;4623;54.310;10.112;2022-11-20T01:26:18;4.00;;;3.70;;
9176;SDS011;4623;54.310;10.112;2022-11-20T01:28:45;3.70;;;3.30;;
9176;SDS011;4623;54.310;10.112;2022-11-20T01:31:11;3.10;;;2.90;;
9176;SDS011;4623;54.310;10.112;2022-11-20T01:33:38;4.23;;;3.10;;
9176;SDS011;4623;54.310;10.112;2022-11-20T01:36:05;3.67;;;3.37;;
9176;SDS011;4623;54.310;10.112;2022-11-20T01:38:32;3.80;;;3.50;;
9176;SDS011;4623;54.310;10.112;2022-11-20T01:40:58;5.70;;;4.03;;
9176;SDS011;4623;54.310;10.112;2022-11-20T01:43:23;3.80;;;3.50;;
9176;SDS011;4623;54.310;10.112;2022-11-20T01:48:31;3.80;;;3.50;;
9176;SDS011;4623;54.310;10.112;2022-11-20T01:50:57;3.50;;;3.20;;
9176;SDS011;4623;54.310;10.112;2022-11-20T01:53:25;3.40;;;3.10;;
9176;SDS011;4623;54.310;10.112;2022-11-20T01:55:55;4.40;;;3.67;;
9176;SDS011;4623;54.310;10.112;2022-11-20T01:58:25;3.30;;;3.00;;
9176;SDS011;4623;54.310;10.112;2022-11-20T02:00:57;3.97;;;3.00;;
9176;SDS011;4623;54.310;10.112;2022-11-20T02:03:23;2.83;;;2.63;;
9176;SDS011;4623;54.310;10.112;2022-11-20T02:05:57;3.60;;;3.30;;
9176;SDS011;4623;54.310;10.112;2022-11-20T02:08:30;3.10;;;2.90;;
9176;SDS011;4623;54.310;10.112;2022-11-20T02:10:56;4.03;;;2.97;;
9176;SDS011;4623;54.310;10.112;2022-11-20T02:13:21;4.63;;;3.30;;
9176;SDS011;4623;54.310;10.112;2022-11-20T02:16:08;3.00;;;2.80;;
9176;SDS011;4623;54.310;10.112;2022-11-20T02:18:43;3.00;;;2.80;;
9176;SDS011;4623;54.310;10.112;2022-11-20T02:21:15;3.63;;;3.33;;
9176;SDS011;4623;54.310;10.112;2022-11-20T02:26:28;3.50;;;3.20;;
9176;SDS011;4623;54.310;10.112;2022-11-20T02:28:55;3.07;;;2.87;;
9176;SDS011;4623;54.310;10.112;2022-11-20T02:31:22;4.23;;;3.23;;
9176;SDS011;4623;54.310;10.112;2022-11-20T02:33:53;3.13;;;2.90;;
9176;SDS011;4623;54.310;10.112;2022-11-20T02:36:22;3.50;;;3.20;;
9176;SDS011;4623;54.310;10.112;2022-11-20T02:38:49;3.40;;;3.10;;
9176;SDS011;4623;54.310;10.112;2022-11-20T02:41:15;5.13;;;3.03;;
9176;SDS011;4623;54.310;10.112;2022-11-20T02:43:41;4.00;;;3.60;;
9176;SDS011;4623;54.310;10.112;2022-11-20T02:46:07;3.57;;;3.27;;
9176;SDS011;4623;54.310;10.112;2022-11-20T02:48:33;4.07;;;3.67;;
9176;SDS011;4623;54.310;10.112;2022-11-20T02:50:59;3.93;;;3.47;;
9176;SDS011;4623;54.310;10.112;2022-11-20T02:53:24;4.10;;;3.70;;
9176;SDS011;4623;54.310;10.112;2022-11-20T02:55:50;3.97;;;3.43;;
9176;SDS011;4623;54.310;10.112;2022-11-20T02:58:16;3.97;;;3.57;;
9176;SDS011;4623;54.310;10.112;2022-11-20T03:00:41;3.40;;;3.10;;
9176;SDS011;4623;54.310;10.112;2022-11-20T03:03:07;3.70;;;3.40;;
9176;SDS011;4623;54.310;10.112;2022-11-20T03:05:32;4.50;;;3.53;;
9176;SDS011;4623;54.310;10.112;2022-11-20T03:07:58;5.57;;;2.90;;
9176;SDS011;4623;54.310;10.112;2022-11-20T03:10:24;4.07;;;3.70;;
9176;SDS011;4623;54.310;10.112;2022-11-20T03:12:53;3.63;;;3.17;;
9176;SDS011;4623;54.310;10.112;2022-11-20T03:15:20;4.20;;;3.20;;
9176;SDS011;4623;54.310;10.112;2022-11-20T03:17:47;3.90;;;3.33;;
9176;SDS011;4623;54.310;10.112;2022-11-20T03:20:12;5.27;;;3.87;;
9176;SDS011;4623;54.310;10.112;2022-11-20T03:22:38;5.80;;;4.40;;
9176;SDS011;4623;54.310;10.112;2022-11-20T03:25:03;8.17;;;6.00;;
9176;SDS011;4623;54.310;10.112;2022-11-20T03:27:38;7.10;;;5.00;;
9176;SDS011;4623;54.310;10.112;2022-11-20T03:30:04;8.00;;;4.53;;
9176;SDS011;4623;54.310;10.112;2022-11-20T03:32:30;5.80;;;4.63;;
9176;SDS011;4623;54.310;10.112;2022-11-20T03:34:56;4.00;;;3.20;;
9176;SDS011;4623;54.310;10.112;2022-11-20T03:37:22;3.90;;;3.20;;
9176;SDS011;4623;54.310;10.112;2022-11-20T03:39:47;3.67;;;3.37;;
9176;SDS011;4623;54.310;10.112;2022-11-20T03:42:13;3.80;;;3.33;;
9176;SDS011;4623;54.310;10.112;2022-11-20T03:45:05;3.97;;;3.47;;
9176;SDS011;4623;54.310;10.112;2022-11-20T03:47:30;3.30;;;3.00;;
9176;SDS011;4623;54.310;10.112;2022-11-20T03:49:56;4.43;;;3.80;;
9176;SDS011;4623;54.310;10.112;2022-11-20T03:52:22;4.57;;;3.20;;
9176;SDS011;4623;54.310;10.112;2022-11-20T03:54:47;4.07;;;3.77;;
9176;SDS011;4623;54.310;10.112;2022-11-20T03:57:13;3.50;;;3.20;;
9176;SDS011;4623;54.310;10.112;2022-11-20T03:59:38;3.80;;;3.50;;
9176;SDS011;4623;54.310;10.112;2022-11-20T04:02:04;3.47;;;3.17;;
9176;SDS011;4623;54.310;10.112;2022-11-20T04:04:29;3.73;;;3.43;;
9176;SDS011;4623;54.310;10.112;2022-11-20T04:06:55;3.53;;;3.23;;
9176;SDS011;4623;54.310;10.112;2022-11-20T04:09:20;4.07;;;3.77;;
9176;SDS011;4623;54.310;10.112;2022-11-20T04:11:46;3.40;;;3.10;;
9176;SDS011;4623;54.310;10.112;2022-11-20T04:14:15;3.33;;;3.03;;
9176;SDS011;4623;54.310;10.112;2022-11-20T04:16:42;4.40;;;3.90;;
9176;SDS011;4623;54.310;10.112;2022-11-20T04:19:14;3.03;;;2.83;;
9176;SDS011;4623;54.310;10.112;2022-11-20T04:21:41;3.53;;;3.23;;
9176;SDS011;4623;54.310;10.112;2022-11-20T04:24:07;3.80;;;3.50;;
9176;SDS011;4623;54.310;10.112;2022-11-20T04:26:35;4.20;;;3.73;;
9176;SDS011;4623;54.310;10.112;2022-11-20T04:29:01;5.43;;;3.53;;
9176;SDS011;4623;54.310;10.112;2022-11-20T04:31:28;3.93;;;3.53;;
9176;SDS011;4623;54.310;10.112;2022-11-20T04:33:55;3.70;;;3.40;;
9176;SDS011;4623;54.310;10.112;2022-11-20T04:36:24;4.60;;;4.20;;
9176;SDS011;4623;54.310;10.112;2022-11-20T04:38:51;4.23;;;3.77;;
9176;SDS011;4623;54.310;10.112;2022-11-20T04:41:29;3.60;;;3.30;;
9176;SDS011;4623;54.310;10.112;2022-11-20T04:43:57;4.87;;;3.43;;
9176;SDS011;4623;54.310;10.112;2022-11-20T04:46:27;3.87;;;3.57;;
9176;SDS011;4623;54.310;10.112;2022-11-20T04:48:53;3.70;;;3.40;;
9176;SDS011;4623;54.310;10.112;2022-11-20T04:51:19;3.37;;;3.07;;
9176;SDS011;4623;54.310;10.112;2022-11-20T04:53:45;4.10;;;3.80;;
9176;SDS011;4623;54.310;10.112;2022-11-20T04:56:11;4.27;;;3.60;;
9176;SDS011;4623;54.310;10.112;2022-11-20T04:58:38;3.23;;;2.93;;
9176;SDS011;4623;54.310;10.112;2022-11-20T05:01:05;3.23;;;3.03;;
9176;SDS011;4623;54.310;10.112;2022-11-20T05:03:33;3.83;;;3.53;;
9176;SDS011;4623;54.310;10.112;2022-11-20T05:06:00;3.10;;;2.80;;
9176;SDS011;4623;54.310;10.112;2022-11-20T05:08:27;3.40;;;3.20;;
9176;SDS011;4623;54.310;10.112;2022-11-20T05:10:53;2.73;;;2.53;;
9176;SDS011;4623;54.310;10.112;2022-11-20T05:13:19;2.83;;;2.60;;
9176;SDS011;4623;54.310;10.112;2022-11-20T05:15:44;2.80;;;2.60;;
9176;SDS011;4623;54.310;10.112;2022-11-20T05:18:10;2.17;;;2.07;;
9176;SDS011;4623;54.310;10.112;2022-11-20T05:20:35;2.20;;;2.10;;
9176;SDS011;4623;54.310;10.112;2022-11-20T05:23:01;2.43;;;2.23;;
9176;SDS011;4623;54.310;10.112;2022-11-20T05:25:27;2.80;;;2.60;;
9176;SDS011;4623;54.310;10.112;2022-11-20T05:27:53;2.33;;;2.23;;
9176;SDS011;4623;54.310;10.112;2022-11-20T05:30:19;2.57;;;2.40;;
9176;SDS011;4623;54.310;10.112;2022-11-20T05:32:44;2.20;;;2.10;;
9176;SDS011;4623;54.310;10.112;2022-11-20T05:35:10;2.17;;;2.07;;
9176;SDS011;4623;54.310;10.112;2022-11-20T05:37:35;2.53;;;2.43;;
9176;SDS011;4623;54.310;10.112;2022-11-20T05:40:01;2.90;;;2.70;;
9176;SDS011;4623;54.310;10.112;2022-11-20T05:42:29;2.30;;;2.20;;
9176;SDS011;4623;54.310;10.112;2022-11-20T05:44:59;2.97;;;2.77;;
9176;SDS011;4623;54.310;10.112;2022-11-20T05:47:26;3.07;;;2.87;;
9176;SDS011;4623;54.310;10.112;2022-11-20T05:49:53;2.97;;;2.77;;
9176;SDS011;4623;54.310;10.112;2022-11-20T05:52:19;2.80;;;2.60;;
9176;SDS011;4623;54.310;10.112;2022-11-20T05:54:45;3.17;;;2.97;;
9176;SDS011;4623;54.310;10.112;2022-11-20T05:57:10;3.20;;;3.00;;
9176;SDS011;4623;54.310;10.112;2022-11-20T05:59:36;3.60;;;3.30;;
9176;SDS011;4623;54.310;10.112;2022-11-20T06:02:02;3.27;;;3.07;;
9176;SDS011;4623;54.310;10.112;2022-11-20T06:04:27;3.30;;;3.10;;
9176;SDS011;4623;54.310;10.112;2022-11-20T06:06:53;3.00;;;2.80;;
9176;SDS011;4623;54.310;10.112;2022-11-20T06:09:18;2.90;;;2.70;;
9176;SDS011;4623;54.310;10.112;2022-11-20T06:11:44;2.67;;;2.53;;
9176;SDS011;4623;54.310;10.112;2022-11-20T06:14:10;2.83;;;2.63;;
9176;SDS011;4623;54.310;10.112;2022-11-20T06:16:35;3.33;;;3.13;;
9176;SDS011;4623;54.310;10.112;2022-11-20T06:19:01;3.03;;;2.83;;
9176;SDS011;4623;54.310;10.112;2022-11-20T06:21:27;3.20;;;3.00;;
9176;SDS011;4623;54.310;10.112;2022-11-20T06:23:52;4.03;;;3.73;;
9176;SDS011;4623;54.310;10.112;2022-11-20T06:26:20;4.27;;;3.87;;
9176;SDS011;4623;54.310;10.112;2022-11-20T06:28:47;4.23;;;3.80;;
9176;SDS011;4623;54.310;10.112;2022-11-20T06:31:14;3.60;;;3.30;;
9176;SDS011;4623;54.310;10.112;2022-11-20T06:33:41;3.45;;;3.25;;
9176;SDS011;4623;54.310;10.112;2022-11-20T06:36:08;3.80;;;3.50;;
9176;SDS011;4623;54.310;10.112;2022-11-20T06:38:35;3.80;;;3.50;;
9176;SDS011;4623;54.310;10.112;2022-11-20T06:41:01;4.33;;;3.57;;
9176;SDS011;4623;54.310;10.112;2022-11-20T06:43:28;3.90;;;3.60;;
9176;SDS011;4623;54.310;10.112;2022-11-20T06:45:55;4.13;;;3.83;;
9176;SDS011;4623;54.310;10.112;2022-11-20T06:48:22;4.47;;;4.17;;
9176;SDS011;4623;54.310;10.112;2022-11-20T06:50:48;4.33;;;3.93;;
9176;SDS011;4623;54.310;10.112;2022-11-20T06:53:14;4.00;;;3.70;;
9176;SDS011;4623;54.310;10.112;2022-11-20T06:55:43;3.70;;;3.40;;
9176;SDS011;4623;54.310;10.112;2022-11-20T06:58:09;3.50;;;3.20;;
9176;SDS011;4623;54.310;10.112;2022-11-20T07:00:35;3.40;;;3.20;;
9176;SDS011;4623;54.310;10.112;2022-11-20T07:03:04;4.00;;;3.70;;
9176;SDS011;4623;54.310;10.112;2022-11-20T07:05:31;4.20;;;3.90;;
9176;SDS011;4623;54.310;10.112;2022-11-20T07:07:57;3.87;;;3.57;;
9176;SDS011;4623;54.310;10.112;2022-11-20T07:10:23;4.37;;;4.00;;
9176;SDS011;4623;54.310;10.112;2022-11-20T07:12:50;3.70;;;3.40;;
9176;SDS011;4623;54.310;10.112;2022-11-20T07:15:17;3.43;;;3.13;;
9176;SDS011;4623;54.310;10.112;2022-11-20T07:17:44;3.33;;;3.03;;
9176;SDS011;4623;54.310;10.112;2022-11-20T07:20:10;4.13;;;3.83;;
9176;SDS011;4623;54.310;10.112;2022-11-20T07:22:36;3.57;;;3.27;;
9176;SDS011;4623;54.310;10.112;2022-11-20T07:25:02;3.00;;;2.80;;
9176;SDS011;4623;54.310;10.112;2022-11-20T07:27:29;3.30;;;3.00;;
9176;SDS011;4623;54.310;10.112;2022-11-20T07:29:55;3.60;;;3.30;;
9176;SDS011;4623;54.310;10.112;2022-11-20T07:32:20;4.00;;;3.60;;
9176;SDS011;4623;54.310;10.112;2022-11-20T07:34:46;4.07;;;3.67;;
9176;SDS011;4623;54.310;10.112;2022-11-20T07:37:12;3.57;;;3.27;;
9176;SDS011;4623;54.310;10.112;2022-11-20T07:39:38;3.23;;;3.03;;
9176;SDS011;4623;54.310;10.112;2022-11-20T07:42:05;3.00;;;2.80;;
9176;SDS011;4623;54.310;10.112;2022-11-20T07:44:32;2.90;;;2.70;;
9176;SDS011;4623;54.310;10.112;2022-11-20T07:46:58;2.87;;;2.67;;
9176;SDS011;4623;54.310;10.112;2022-11-20T07:49:24;2.80;;;2.60;;
9176;SDS011;4623;54.310;10.112;2022-11-20T07:51:50;2.93;;;2.63;;
9176;SDS011;4623;54.310;10.112;2022-11-20T07:54:18;2.97;;;2.77;;
9176;SDS011;4623;54.310;10.112;2022-11-20T07:56:43;3.10;;;2.90;;
9176;SDS011;4623;54.310;10.112;2022-11-20T07:59:09;2.30;;;2.10;;
9176;SDS011;4623;54.310;10.112;2022-11-20T08:01:36;2.43;;;2.33;;
9176;SDS011;4623;54.310;10.112;2022-11-20T08:04:02;2.20;;;2.10;;
9176;SDS011;4623;54.310;10.112;2022-11-20T08:06:28;2.73;;;2.63;;
9176;SDS011;4623;54.310;10.112;2022-11-20T08:08:54;2.90;;;2.70;;
9176;SDS011;4623;54.310;10.112;2022-11-20T08:11:20;2.67;;;2.50;;
9176;SDS011;4623;54.310;10.112;2022-11-20T08:14:04;2.90;;;2.70;;
9176;SDS011;4623;54.310;10.112;2022-11-20T08:16:45;3.00;;;2.80;;
9176;SDS011;4623;54.310;10.112;2022-11-20T08:19:13;2.80;;;2.60;;
9176;SDS011;4623;54.310;10.112;2022-11-20T08:21:39;2.80;;;2.60;;
9176;SDS011;4623;54.310;10.112;2022-11-20T08:24:05;2.60;;;2.43;;
9176;SDS011;4623;54.310;10.112;2022-11-20T08:26:32;2.97;;;2.67;;
9176;SDS011;4623;54.310;10.112;2022-11-20T08:28:58;2.50;;;2.40;;
9176;SDS011;4623;54.310;10.112;2022-11-20T08:31:25;2.33;;;2.23;;
9176;SDS011;4623;54.310;10.112;2022-11-20T08:33:52;2.40;;;2.30;;
9176;SDS011;4623;54.310;10.112;2022-11-20T08:36:18;2.33;;;2.23;;
9176;SDS011;4623;54.310;10.112;2022-11-20T08:38:48;2.37;;;2.17;;
9176;SDS011;4623;54.310;10.112;2022-11-20T08:41:15;2.03;;;1.93;;
9176;SDS011;4623;54.310;10.112;2022-11-20T08:43:58;2.90;;;2.10;;
9176;SDS011;4623;54.310;10.112;2022-11-20T08:46:26;3.17;;;2.33;;
9176;SDS011;4623;54.310;10.112;2022-11-20T08:48:55;2.67;;;2.20;;
9176;SDS011;4623;54.310;10.112;2022-11-20T08:51:21;2.43;;;2.23;;
9176;SDS011;4623;54.310;10.112;2022-11-20T08:53:46;2.37;;;2.17;;
9176;SDS011;4623;54.310;10.112;2022-11-20T08:56:13;3.20;;;2.10;;
9176;SDS011;4623;54.310;10.112;2022-11-20T08:58:39;3.30;;;3.00;;
9176;SDS011;4623;54.310;10.112;2022-11-20T09:01:05;3.80;;;3.33;;
9176;SDS011;4623;54.310;10.112;2022-11-20T09:03:31;3.20;;;2.53;;
9176;SDS011;4623;54.310;10.112;2022-11-20T09:06:00;2.43;;;2.23;;
9176;SDS011;4623;54.310;10.112;2022-11-20T09:08:27;2.10;;;1.83;;
9176;SDS011;4623;54.310;10.112;2022-11-20T09:10:54;2.57;;;2.37;;
9176;SDS011;4623;54.310;10.112;2022-11-20T09:13:21;2.90;;;2.60;;
9176;SDS011;4623;54.310;10.112;2022-11-20T09:15:52;2.37;;;2.23;;
9176;SDS011;4623;54.310;10.112;2022-11-20T09:18:25;2.93;;;2.23;;
9176;SDS011;4623;54.310;10.112;2022-11-20T09:20:55;3.20;;;2.70;;
9176;SDS011;4623;54.310;10.112;2022-11-20T09:23:21;3.27;;;2.53;;
9176;SDS011;4623;54.310;10.112;2022-11-20T09:25:47;3.63;;;2.27;;
9176;SDS011;4623;54.310;10.112;2022-11-20T09:28:13;2.70;;;2.50;;
9176;SDS011;4623;54.310;10.112;2022-11-20T09:30:38;2.40;;;2.20;;
9176;SDS011;4623;54.310;10.112;2022-11-20T09:33:05;3.10;;;2.77;;
9176;SDS011;4623;54.310;10.112;2022-11-20T09:35:31;4.27;;;2.40;;
9176;SDS011;4623;54.310;10.112;2022-11-20T09:38:04;3.33;;;2.83;;
9176;SDS011;4623;54.310;10.112;2022-11-20T09:40:33;3.20;;;2.90;;
9176;SDS011;4623;54.310;10.112;2022-11-20T09:48:46;5.33;;;3.20;;
9176;SDS011;4623;54.310;10.112;2022-11-20T09:51:31;3.17;;;2.90;;
9176;SDS011;4623;54.310;10.112;2022-11-20T09:54:29;3.33;;;3.03;;
9176;SDS011;4623;54.310;10.112;2022-11-20T09:57:17;3.27;;;2.97;;
9176;SDS011;4623;54.310;10.112;2022-11-20T09:59:48;2.80;;;2.60;;
9176;SDS011;4623;54.310;10.112;2022-11-20T10:02:28;2.50;;;2.30;;
9176;SDS011;4623;54.310;10.112;2022-11-20T10:05:06;2.80;;;2.60;;
9176;SDS011;4623;54.310;10.112;2022-11-20T10:10:42;3.83;;;2.73;;
9176;SDS011;4623;54.310;10.112;2022-11-20T10:15:59;3.70;;;2.87;;
9176;SDS011;4623;54.310;10.112;2022-11-20T10:18:36;3.37;;;3.07;;
9176;SDS011;4623;54.310;10.112;2022-11-20T10:23:44;2.63;;;2.43;;
9176;SDS011;4623;54.310;10.112;2022-11-20T10:29:36;4.40;;;3.07;;
9176;SDS011;4623;54.310;10.112;2022-11-20T10:32:16;4.47;;;3.10;;
9176;SDS011;4623;54.310;10.112;2022-11-20T10:37:30;4.93;;;3.60;;
9176;SDS011;4623;54.310;10.112;2022-11-20T10:42:41;3.50;;;3.20;;
9176;SDS011;4623;54.310;10.112;2022-11-20T10:47:50;3.33;;;3.13;;
9176;SDS011;4623;54.310;10.112;2022-11-20T10:50:21;3.30;;;3.10;;
9176;SDS011;4623;54.310;10.112;2022-11-20T11:00:50;3.60;;;2.90;;
9176;SDS011;4623;54.310;10.112;2022-11-20T11:08:59;2.83;;;2.57;;
9176;SDS011;4623;54.310;10.112;2022-11-20T11:11:30;3.03;;;2.83;;
9176;SDS011;4623;54.310;10.112;2022-11-20T11:14:07;3.97;;;3.63;;
9176;SDS011;4623;54.310;10.112;2022-11-20T11:16:35;3.33;;;3.03;;
9176;SDS011;4623;54.310;10.112;2022-11-20T11:19:05;3.23;;;3.03;;
9176;SDS011;4623;54.310;10.112;2022-11-20T11:21:30;4.10;;;3.70;;
9176;SDS011;4623;54.310;10.112;2022-11-20T11:23:59;3.73;;;3.37;;
9176;SDS011;4623;54.310;10.112;2022-11-20T11:26:27;3.57;;;3.27;;
9176;SDS011;4623;54.310;10.112;2022-11-20T11:28:57;3.47;;;3.17;;
9176;SDS011;4623;54.310;10.112;2022-11-20T11:31:28;3.97;;;3.67;;
9176;SDS011;4623;54.310;10.112;2022-11-20T11:36:36;3.80;;;3.50;;
9176;SDS011;4623;54.310;10.112;2022-11-20T11:39:03;3.60;;;3.30;;
9176;SDS011;4623;54.310;10.112;2022-11-20T11:41:32;4.17;;;3.27;;
9176;SDS011;4623;54.310;10.112;2022-11-20T11:46:58;2.77;;;2.57;;
9176;SDS011;4623;54.310;10.112;2022-11-20T11:49:24;3.00;;;2.80;;
9176;SDS011;4623;54.310;10.112;2022-11-20T11:54:29;3.47;;;3.20;;
9176;SDS011;4623;54.310;10.112;2022-11-20T11:57:20;2.67;;;2.47;;
9176;SDS011;4623;54.310;10.112;2022-11-20T11:59:53;2.73;;;2.53;;
9176;SDS011;4623;54.310;10.112;2022-11-20T12:05:20;2.27;;;2.10;;
9176;SDS011;4623;54.310;10.112;2022-11-20T12:07:55;2.60;;;2.40;;
9176;SDS011;4623;54.310;10.112;2022-11-20T12:15:58;2.93;;;2.70;;
9176;SDS011;4623;54.310;10.112;2022-11-20T12:18:26;3.77;;;2.67;;
9176;SDS011;4623;54.310;10.112;2022-11-20T12:25:56;3.13;;;2.40;;
9176;SDS011;4623;54.310;10.112;2022-11-20T12:31:10;2.80;;;2.60;;
9176;SDS011;4623;54.310;10.112;2022-11-20T12:33:54;3.67;;;2.60;;
9176;SDS011;4623;54.310;10.112;2022-11-20T12:36:28;3.00;;;2.80;;
9176;SDS011;4623;54.310;10.112;2022-11-20T12:39:21;3.20;;;2.90;;
9176;SDS011;4623;54.310;10.112;2022-11-20T12:51:14;4.23;;;2.80;;
9176;SDS011;4623;54.310;10.112;2022-11-20T12:56:37;2.40;;;2.20;;
9176;SDS011;4623;54.310;10.112;2022-11-20T12:59:28;2.77;;;2.47;;
9176;SDS011;4623;54.310;10.112;2022-11-20T13:07:44;4.90;;;2.10;;
9176;SDS011;4623;54.310;10.112;2022-11-20T13:10:16;2.87;;;2.60;;
9176;SDS011;4623;54.310;10.112;2022-11-20T13:12:54;2.23;;;2.07;;
9176;SDS011;4623;54.310;10.112;2022-11-20T13:15:31;2.37;;;2.17;;
9176;SDS011;4623;54.310;10.112;2022-11-20T13:18:07;2.27;;;2.07;;
9176;SDS011;4623;54.310;10.112;2022-11-20T13:20:35;2.10;;;2.00;;
9176;SDS011;4623;54.310;10.112;2022-11-20T13:23:06;2.30;;;2.10;;
9176;SDS011;4623;54.310;10.112;2022-11-20T13:25:35;2.77;;;2.57;;
9176;SDS011;4623;54.310;10.112;2022-11-20T13:30:34;2.40;;;2.20;;
9176;SDS011;4623;54.310;10.112;2022-11-20T13:33:08;2.33;;;2.13;;
9176;SDS011;4623;54.310;10.112;2022-11-20T13:35:56;2.63;;;2.43;;
9176;SDS011;4623;54.310;10.112;2022-11-20T13:38:49;2.50;;;2.30;;
9176;SDS011;4623;54.310;10.112;2022-11-20T13:41:29;2.37;;;2.20;;
9176;SDS011;4623;54.310;10.112;2022-11-20T13:44:10;2.07;;;1.90;;
9176;SDS011;4623;54.310;10.112;2022-11-20T13:46:56;2.40;;;2.20;;
9176;SDS011;4623;54.310;10.112;2022-11-20T13:49:37;2.30;;;2.20;;
9176;SDS011;4623;54.310;10.112;2022-11-20T14:00:44;2.40;;;2.20;;
9176;SDS011;4623;54.310;10.112;2022-11-20T14:03:18;3.27;;;2.40;;
9176;SDS011;4623;54.310;10.112;2022-11-20T14:05:49;2.83;;;2.00;;
9176;SDS011;4623;54.310;10.112;2022-11-20T14:08:32;2.53;;;2.33;;
9176;SDS011;4623;54.310;10.112;2022-11-20T14:13:55;2.00;;;1.80;;
9176;SDS011;4623;54.310;10.112;2022-11-20T14:16:38;2.30;;;2.10;;
9176;SDS011;4623;54.310;10.112;2022-11-20T14:21:45;2.57;;;2.10;;
9176;SDS011;4623;54.310;10.112;2022-11-20T14:24:20;2.07;;;1.87;;
9176;SDS011;4623;54.310;10.112;2022-11-20T14:26:47;2.20;;;2.07;;
9176;SDS011;4623;54.310;10.112;2022-11-20T14:29:13;2.03;;;1.90;;
9176;SDS011;4623;54.310;10.112;2022-11-20T14:31:44;2.10;;;2.00;;
9176;SDS011;4623;54.310;10.112;2022-11-20T14:34:15;1.97;;;1.87;;
9176;SDS011;4623;54.310;10.112;2022-11-20T14:36:44;2.40;;;2.20;;
9176;SDS011;4623;54.310;10.112;2022-11-20T14:39:11;2.17;;;2.07;;
9176;SDS011;4623;54.310;10.112;2022-11-20T14:41:52;2.63;;;2.07;;
9176;SDS011;4623;54.310;10.112;2022-11-20T14:44:20;3.10;;;2.43;;
9176;SDS011;4623;54.310;10.112;2022-11-20T14:46:51;2.50;;;2.30;;
9176;SDS011;4623;54.310;10.112;2022-11-20T14:49:19;2.17;;;1.97;;
9176;SDS011;4623;54.310;10.112;2022-11-20T14:51:45;3.13;;;2.80;;
9176;SDS011;4623;54.310;10.112;2022-11-20T14:54:15;2.77;;;2.57;;
9176;SDS011;4623;54.310;10.112;2022-11-20T14:56:55;3.10;;;2.80;;
9176;SDS011;4623;54.310;10.112;2022-11-20T14:59:23;3.47;;;2.83;;
9176;SDS011;4623;54.310;10.112;2022-11-20T15:01:54;3.03;;;2.83;;
9176;SDS011;4623;54.310;10.112;2022-11-20T15:04:25;4.43;;;2.67;;
9176;SDS011;4623;54.310;10.112;2022-11-20T15:06:52;3.07;;;2.83;;
9176;SDS011;4623;54.310;10.112;2022-11-20T15:09:19;3.10;;;2.80;;
9176;SDS011;4623;54.310;10.112;2022-11-20T15:11:52;2.77;;;2.57;;
9176;SDS011;4623;54.310;10.112;2022-11-20T15:14:28;3.33;;;2.93;;
9176;SDS011;4623;54.310;10.112;2022-11-20T15:16:56;3.20;;;2.93;;
9176;SDS011;4623;54.310;10.112;2022-11-20T15:19:22;3.60;;;3.30;;
9176;SDS011;4623;54.310;10.112;2022-11-20T15:21:49;2.73;;;2.50;;
9176;SDS011;4623;54.310;10.112;2022-11-20T15:24:15;2.80;;;2.60;;
9176;SDS011;4623;54.310;10.112;2022-11-20T15:26:41;3.70;;;3.07;;
9176;SDS011;4623;54.310;10.112;2022-11-20T15:29:12;3.37;;;3.07;;
9176;SDS011;4623;54.310;10.112;2022-11-20T15:31:39;4.20;;;3.30;;
9176;SDS011;4623;54.310;10.112;2022-11-20T15:34:10;3.43;;;3.13;;
9176;SDS011;4623;54.310;10.112;2022-11-20T15:36:37;3.90;;;3.50;;
9176;SDS011;4623;54.310;10.112;2022-11-20T15:39:03;4.13;;;3.30;;
9176;SDS011;4623;54.310;10.112;2022-11-20T15:41:29;3.40;;;2.93;;
9176;SDS011;4623;54.310;10.112;2022-11-20T15:43:54;3.87;;;3.37;;
9176;SDS011;4623;54.310;10.112;2022-11-20T15:46:25;4.20;;;3.50;;
9176;SDS011;4623;54.310;10.112;2022-11-20T15:48:56;4.30;;;3.90;;
9176;SDS011;4623;54.310;10.112;2022-11-20T15:51:27;4.10;;;3.70;;
9176;SDS011;4623;54.310;10.112;2022-11-20T15:54:09;5.73;;;4.67;;
9176;SDS011;4623;54.310;10.112;2022-11-20T15:56:36;6.20;;;4.57;;
9176;SDS011;4623;54.310;10.112;2022-11-20T15:59:02;5.17;;;4.33;;
9176;SDS011;4623;54.310;10.112;2022-11-20T16:01:28;6.40;;;4.90;;
9176;SDS011;4623;54.310;10.112;2022-11-20T16:03:53;7.53;;;5.63;;
9176;SDS011;4623;54.310;10.112;2022-11-20T16:06:19;6.57;;;5.63;;
9176;SDS011;4623;54.310;10.112;2022-11-20T16:08:45;6.10;;;5.50;;
9176;SDS011;4623;54.310;10.112;2022-11-20T16:11:14;6.47;;;5.53;;
9176;SDS011;4623;54.310;10.112;2022-11-20T16:13:41;5.77;;;4.80;;
9176;SDS011;4623;54.310;10.112;2022-11-20T16:19:02;6.40;;;5.27;;
9176;SDS011;4623;54.310;10.112;2022-11-20T16:21:28;6.47;;;5.70;;
9176;SDS011;4623;54.310;10.112;2022-11-20T16:24:01;7.77;;;6.40;;
9176;SDS011;4623;54.310;10.112;2022-11-20T16:26:28;8.63;;;6.47;;
9176;SDS011;4623;54.310;10.112;2022-11-20T16:28:54;9.87;;;7.93;;
9176;SDS011;4623;54.310;10.112;2022-11-20T16:31:20;8.37;;;6.80;;
9176;SDS011;4623;54.310;10.112;2022-11-20T16:33:50;7.97;;;7.00;;
9176;SDS011;4623;54.310;10.112;2022-11-20T16:36:17;7.07;;;6.17;;
9176;SDS011;4623;54.310;10.112;2022-11-20T16:38:44;6.93;;;5.70;;
9176;SDS011;4623;54.310;10.112;2022-11-20T16:41:09;7.77;;;5.90;;
9176;SDS011;4623;54.310;10.112;2022-11-20T16:43:48;5.63;;;5.13;;
9176;SDS011;4623;54.310;10.112;2022-11-20T16:46:15;9.30;;;6.43;;
9176;SDS011;4623;54.310;10.112;2022-11-20T16:48:43;7.37;;;5.80;;
9176;SDS011;4623;54.310;10.112;2022-11-20T16:51:09;7.83;;;6.57;;
9176;SDS011;4623;54.310;10.112;2022-11-20T16:53:35;7.17;;;6.27;;
9176;SDS011;4623;54.310;10.112;2022-11-20T16:56:12;7.50;;;6.50;;
9176;SDS011;4623;54.310;10.112;2022-11-20T16:58:41;6.63;;;5.93;;
9176;SDS011;4623;54.310;10.112;2022-11-20T17:01:08;6.57;;;5.83;;